Time;durP1;ratioP1;P1;durP2;ratioP2;P2;SDS_P1;SDS_P2;PMS_P1;PMS_P2;Temp;Humidity;BMP_temperature;BMP_pressure;BME280_temperature;BME280_humidity;BME280_pressure;Samples;Min_cycle;Max_cycle;Signal;HPM_P1;HPM_P2
2021/10/24 00:02:32;;;;;;;0.20;0.10;;;14.70;99.90;;;;;;20255879;29;20294;-68
2021/10/24 00:12:36;;;;;;;0.50;0.50;;;14.40;99.90;;;;;;20254404;29;20210;-67
2021/10/24 00:22:42;;;;;;;0.20;0.10;;;14.20;99.90;;;;;;20284574;29;20226;-67
2021/10/24 00:32:46;;;;;;;0.33;0.33;;;14.10;99.90;;;;;;20337038;29;20563;-67
2021/10/24 00:42:52;;;;;;;0.20;0.20;;;13.90;99.90;;;;;;20346680;29;20992;-67
2021/10/24 00:52:58;;;;;;;1.50;0.63;;;13.80;99.90;;;;;;20309692;29;20944;-67
2021/10/24 01:03:04;;;;;;;0.20;0.10;;;13.70;99.90;;;;;;20316643;29;20288;-67
2021/10/24 01:13:08;;;;;;;0.60;0.57;;;13.60;99.90;;;;;;20345191;29;20206;-66
2021/10/24 01:23:13;;;;;;;0.50;0.40;;;13.60;99.90;;;;;;20343654;29;20324;-66
2021/10/24 01:33:16;;;;;;;0.30;0.30;;;13.50;99.90;;;;;;20343593;29;20206;-67
2021/10/24 01:43:22;;;;;;;0.20;0.10;;;13.50;99.90;;;;;;20341165;29;20221;-67
2021/10/24 01:53:30;;;;;;;0.20;0.20;;;13.40;99.90;;;;;;20299437;29;20216;-67
2021/10/24 02:03:37;;;;;;;0.37;0.17;;;13.60;99.90;;;;;;20341977;29;20242;-68
2021/10/24 02:13:40;;;;;;;0.20;0.10;;;13.50;99.90;;;;;;20339031;29;20258;-67
2021/10/24 02:23:45;;;;;;;0.50;0.50;;;13.30;99.90;;;;;;20340327;29;20310;-67
2021/10/24 02:33:49;;;;;;;0.20;0.20;;;13.30;99.90;;;;;;20338281;29;20205;-67
2021/10/24 02:43:54;;;;;;;0.23;0.20;;;13.50;99.90;;;;;;20338491;29;20246;-67
2021/10/24 02:53:57;;;;;;;0.20;0.10;;;13.30;99.90;;;;;;20309846;29;20310;-67
2021/10/24 03:04:03;;;;;;;0.20;0.10;;;13.10;99.90;;;;;;20259727;29;20249;-67
2021/10/24 03:14:07;;;;;;;0.50;0.50;;;13.20;99.90;;;;;;20257045;29;20286;-67
2021/10/24 03:24:13;;;;;;;0.20;0.20;;;13.20;99.90;;;;;;20258938;29;20262;-66
2021/10/24 03:34:18;;;;;;;0.20;0.10;;;13.10;99.90;;;;;;20255679;29;20301;-67
2021/10/24 03:44:24;;;;;;;0.20;0.10;;;13.20;99.90;;;;;;20256096;29;20696;-68
2021/10/24 03:54:28;;;;;;;0.70;0.70;;;13.10;99.90;;;;;;20285933;29;20285;-68
2021/10/24 04:04:34;;;;;;;1.40;0.57;;;13.10;99.90;;;;;;20335592;29;20234;-67
2021/10/24 04:14:38;;;;;;;0.57;0.57;;;13.20;99.90;;;;;;20349336;29;20206;-69
2021/10/24 04:24:43;;;;;;;0.40;0.27;;;13.10;99.90;;;;;;20363636;29;20202;-68
2021/10/24 04:34:47;;;;;;;0.30;0.20;;;13.10;99.90;;;;;;20346818;29;20202;-67
2021/10/24 04:44:52;;;;;;;0.50;0.47;;;13.00;99.90;;;;;;20347406;29;20206;-67
2021/10/24 04:54:56;;;;;;;0.70;0.70;;;12.90;99.90;;;;;;20309899;29;20265;-68
2021/10/24 05:05:00;;;;;;;1.77;0.43;;;13.00;99.90;;;;;;20267981;29;20647;-69
2021/10/24 05:15:05;;;;;;;0.20;0.10;;;12.90;99.90;;;;;;20266484;29;20261;-69
2021/10/24 05:25:11;;;;;;;0.50;0.50;;;13.00;99.90;;;;;;20265081;29;20203;-69
2021/10/24 05:35:15;;;;;;;0.70;0.47;;;12.90;99.90;;;;;;20263679;29;20215;-69
2021/10/24 05:45:21;;;;;;;0.43;0.33;;;12.90;99.90;;;;;;20264610;29;20626;-69
2021/10/24 05:55:25;;;;;;;0.40;0.20;;;12.90;99.90;;;;;;20303232;29;20309;-68
2021/10/24 06:05:30;;;;;;;0.20;0.10;;;12.90;99.90;;;;;;20340493;29;20218;-68
2021/10/24 06:15:39;;;;;;;0.20;0.10;;;13.00;99.90;;;;;;20340416;29;20233;-69
2021/10/24 06:25:45;;;;;;;0.30;0.30;;;13.10;99.90;;;;;;20339839;29;20744;-67
2021/10/24 06:35:48;;;;;;;0.43;0.43;;;13.20;99.90;;;;;;20338277;29;20226;-67
2021/10/24 06:45:54;;;;;;;1.03;0.23;;;13.10;99.90;;;;;;20337988;29;20202;-69
2021/10/24 06:55:58;;;;;;;0.20;0.20;;;13.30;99.90;;;;;;20293872;29;20230;-68
2021/10/24 07:06:07;;;;;;;0.20;0.20;;;13.50;99.90;;;;;;20259192;29;20588;-68
2021/10/24 07:16:11;;;;;;;0.63;0.30;;;13.80;99.90;;;;;;20258742;29;20593;-68
2021/10/24 07:26:17;;;;;;;0.20;0.10;;;14.30;99.90;;;;;;20240710;29;20581;-67
2021/10/24 07:36:20;;;;;;;4.83;0.47;;;14.70;99.90;;;;;;20256604;29;20237;-67
2021/10/24 07:46:26;;;;;;;1.23;0.53;;;14.90;99.90;;;;;;20268809;29;20199;-68
2021/10/24 07:56:33;;;;;;;0.20;0.20;;;15.20;99.90;;;;;;20319856;29;20217;-68
2021/10/24 08:06:38;;;;;;;0.27;0.20;;;15.50;99.90;;;;;;20349422;29;20221;-69
2021/10/24 08:16:42;;;;;;;0.80;0.40;;;15.80;99.90;;;;;;20349632;29;20238;-68
2021/10/24 08:26:49;;;;;;;1.03;0.70;;;16.10;99.90;;;;;;20334274;29;20638;-67
2021/10/24 08:36:52;;;;;;;0.20;0.20;;;16.40;99.90;;;;;;20336890;29;20655;-67
2021/10/24 08:46:58;;;;;;;0.20;0.10;;;16.70;99.90;;;;;;20306551;29;20210;-67
2021/10/24 08:57:01;;;;;;;0.20;0.13;;;17.00;99.90;;;;;;20304763;29;20309;-67
2021/10/24 09:07:07;;;;;;;1.50;1.40;;;17.50;99.90;;;;;;20304165;29;20271;-67
2021/10/24 09:17:12;;;;;;;4.33;0.87;;;17.80;99.90;;;;;;20265619;29;20277;-68
2021/10/24 09:27:17;;;;;;;0.67;0.30;;;18.20;99.90;;;;;;20260818;29;20565;-69
2021/10/24 09:37:21;;;;;;;0.27;0.27;;;18.80;99.90;;;;;;20264288;29;20222;-68
2021/10/24 09:47:26;;;;;;;0.40;0.20;;;19.10;99.90;;;;;;20263789;29;20681;-68
2021/10/24 09:57:30;;;;;;;0.73;0.30;;;19.50;99.90;;;;;;20310275;29;20230;-69
2021/10/24 10:07:36;;;;;;;0.27;0.23;;;19.90;99.90;;;;;;20337174;29;20229;-69
2021/10/24 10:17:40;;;;;;;0.63;0.63;;;20.50;99.90;;;;;;20339082;29;20237;-67
2021/10/24 10:27:46;;;;;;;0.47;0.40;;;21.00;99.90;;;;;;20338097;29;20198;-66
2021/10/24 10:37:55;;;;;;;0.65;0.45;;;22.00;99.90;;;;;;20335324;29;20317;-69
2021/10/24 10:48:03;;;;;;;0.32;0.32;;;22.90;99.90;;;;;;20338433;29;20190;-69
2021/10/24 10:58:27;;;;;;;0.20;0.20;;;23.30;99.90;;;;;;20334867;29;20585;-69
2021/10/24 11:08:50;;;;;;;0.30;0.30;;;23.70;99.90;;;;;;20332826;29;20226;-69
2021/10/24 11:18:54;;;;;;;0.30;0.30;;;24.10;99.90;;;;;;20311096;29;20321;-69
2021/10/24 11:28:59;;;;;;;1.92;0.82;;;24.60;99.90;;;;;;20319581;29;20254;-68
2021/10/24 11:39:05;;;;;;;0.60;0.60;;;25.50;99.90;;;;;;20285020;29;20230;-67
2021/10/24 11:49:11;;;;;;;5.95;1.20;;;24.70;99.90;;;;;;20255946;29;20211;-69
2021/10/24 11:59:17;;;;;;;0.45;0.40;;;23.00;99.90;;;;;;20317367;29;20229;-68
2021/10/24 12:09:34;;;;;;;1.20;1.00;;;24.20;99.90;;;;;;20250739;29;20287;-68
2021/10/24 12:19:38;;;;;;;2.72;1.20;;;25.60;99.90;;;;;;20267141;29;20362;-65
2021/10/24 12:29:59;;;;;;;0.50;0.50;;;25.90;99.90;;;;;;20259742;29;20302;-68
2021/10/24 12:40:20;;;;;;;0.77;0.77;;;26.00;99.90;;;;;;20266389;29;20233;-69
2021/10/24 12:50:36;;;;;;;1.80;1.38;;;25.90;99.90;;;;;;20267752;29;20553;-68
2021/10/24 13:00:39;;;;;;;2.58;0.52;;;26.70;99.90;;;;;;20266362;29;20244;-69
2021/10/24 13:10:45;;;;;;;1.02;0.80;;;26.40;99.90;;;;;;20269285;29;20199;-68
2021/10/24 13:20:56;;;;;;;0.75;0.55;;;26.60;99.90;;;;;;20263148;29;20235;-66
2021/10/24 13:31:02;;;;;;;0.80;0.40;;;26.30;99.90;;;;;;20263172;29;20198;-67
2021/10/24 13:41:06;;;;;;;0.52;0.52;;;26.70;99.90;;;;;;20259385;29;20235;-66
2021/10/24 13:51:14;;;;;;;9.95;1.58;;;27.00;99.90;;;;;;20266263;29;20540;-67
2021/10/24 14:01:17;;;;;;;10.95;1.27;;;27.40;99.90;;;;;;20337476;29;20632;-67
2021/10/24 14:11:24;;;;;;;1.17;0.75;;;26.80;99.90;;;;;;20334052;29;20212;-67
2021/10/24 14:21:28;;;;;;;1.00;0.88;;;27.30;99.90;;;;;;20335422;29;21237;-67
2021/10/24 14:31:33;;;;;;;2.40;1.17;;;27.20;99.90;;;;;;20351056;29;20571;-67
2021/10/24 14:41:37;;;;;;;2.30;0.60;;;26.40;99.90;;;;;;20335495;29;20592;-67
2021/10/24 14:51:41;;;;;;;0.55;0.40;;;26.20;99.90;;;;;;20327015;29;20274;-67
2021/10/24 15:01:45;;;;;;;1.85;0.60;;;25.90;99.90;;;;;;20258416;29;20253;-69
2021/10/24 15:11:50;;;;;;;0.45;0.28;;;25.60;99.90;;;;;;20259287;29;20199;-69
2021/10/24 15:21:55;;;;;;;0.77;0.75;;;23.00;99.90;;;;;;20258460;29;20230;-70
2021/10/24 15:32:00;;;;;;;0.65;0.38;;;22.30;99.90;;;;;;20258326;29;20198;-69
2021/10/24 15:42:04;;;;;;;3.30;0.70;;;21.80;99.90;;;;;;20256960;29;20317;-70
2021/10/24 15:52:11;;;;;;;2.70;1.27;;;21.60;99.90;;;;;;20266686;29;20187;-67
2021/10/24 16:02:15;;;;;;;0.93;0.77;;;21.30;99.90;;;;;;20325555;29;20313;-67
2021/10/24 16:12:21;;;;;;;0.70;0.70;;;21.10;99.90;;;;;;20344585;29;20202;-68
2021/10/24 16:22:25;;;;;;;11.63;1.13;;;21.00;99.90;;;;;;20344307;29;20710;-68
2021/10/24 16:32:30;;;;;;;3.17;1.13;;;20.90;99.90;;;;;;20342024;29;20216;-69
2021/10/24 16:42:33;;;;;;;2.17;1.10;;;20.50;99.90;;;;;;20343331;29;20369;-68
2021/10/24 16:52:39;;;;;;;1.60;1.33;;;20.10;99.90;;;;;;20323961;29;20213;-67
2021/10/24 17:02:43;;;;;;;5.13;1.17;;;20.10;99.90;;;;;;20262781;29;20239;-67
2021/10/24 17:12:49;;;;;;;2.30;0.60;;;19.90;99.90;;;;;;20261953;29;20601;-67
2021/10/24 17:22:53;;;;;;;2.43;1.33;;;19.80;99.90;;;;;;20262408;29;20226;-70
2021/10/24 17:32:58;;;;;;;1.20;1.03;;;19.70;99.90;;;;;;20255851;29;20206;-71
2021/10/24 17:43:02;;;;;;;8.20;1.47;;;19.40;99.90;;;;;;20256973;29;20313;-67
2021/10/24 17:53:07;;;;;;;1.80;1.70;;;19.40;99.90;;;;;;20280879;29;20286;-69
2021/10/24 18:03:13;;;;;;;0.87;0.80;;;19.40;99.90;;;;;;20331304;29;20250;-68
2021/10/24 18:13:18;;;;;;;4.93;2.13;;;19.30;99.90;;;;;;20332039;29;20641;-67
2021/10/24 18:23:22;;;;;;;1.50;0.90;;;19.10;99.90;;;;;;20333915;29;20336;-66
2021/10/24 18:33:28;;;;;;;1.23;1.13;;;19.00;99.90;;;;;;20333613;29;20288;-66
2021/10/24 18:43:31;;;;;;;6.53;0.73;;;18.70;99.90;;;;;;20335863;29;20767;-67
2021/10/24 18:53:36;;;;;;;3.27;1.43;;;18.70;99.90;;;;;;20319715;29;20218;-67
2021/10/24 19:03:40;;;;;;;4.40;1.47;;;18.30;99.90;;;;;;20329278;29;20320;-67
2021/10/24 19:13:48;;;;;;;2.23;2.03;;;17.80;99.90;;;;;;20323962;29;20217;-68
2021/10/24 19:23:52;;;;;;;3.03;1.20;;;17.50;99.90;;;;;;20330955;29;20308;-67
2021/10/24 19:33:57;;;;;;;1.23;1.13;;;17.30;99.90;;;;;;20296612;29;20214;-66
2021/10/24 19:44:01;;;;;;;2.63;1.40;;;17.20;99.90;;;;;;20329642;29;20226;-65
2021/10/24 19:54:06;;;;;;;1.67;1.50;;;17.00;99.90;;;;;;20301498;29;20637;-66
2021/10/24 20:04:10;;;;;;;0.87;0.70;;;16.80;99.90;;;;;;20253017;29;20652;-66
2021/10/24 20:14:15;;;;;;;0.60;0.60;;;16.70;99.90;;;;;;20253973;29;20306;-67
2021/10/24 20:24:18;;;;;;;3.80;1.37;;;16.80;99.90;;;;;;20252904;29;20227;-67
2021/10/24 20:34:23;;;;;;;2.70;1.20;;;16.90;99.90;;;;;;20252748;29;20552;-68
2021/10/24 20:44:27;;;;;;;0.67;0.67;;;17.10;99.90;;;;;;20245478;29;20569;-68
2021/10/24 20:54:32;;;;;;;0.40;0.40;;;16.80;99.90;;;;;;20292269;29;20456;-65
2021/10/24 21:04:36;;;;;;;2.50;2.30;;;16.50;99.90;;;;;;20342009;29;20241;-67
2021/10/24 21:14:42;;;;;;;0.33;0.33;;;16.60;99.90;;;;;;20340024;29;20679;-67
2021/10/24 21:24:46;;;;;;;2.63;0.93;;;16.50;99.90;;;;;;20342140;29;20240;-67
2021/10/24 21:34:51;;;;;;;0.67;0.67;;;16.50;99.90;;;;;;20340829;29;20198;-65
2021/10/24 21:44:54;;;;;;;0.57;0.50;;;16.50;99.90;;;;;;20341312;29;20284;-66
2021/10/24 21:55:04;;;;;;;27.10;0.80;;;16.30;99.90;;;;;;20305186;29;20293;-65
2021/10/24 22:05:08;;;;;;;2.03;1.33;;;16.30;99.90;;;;;;20301766;29;20233;-67
2021/10/24 22:15:14;;;;;;;0.20;0.10;;;16.20;99.90;;;;;;20341439;29;20205;-68
2021/10/24 22:25:18;;;;;;;0.20;0.10;;;16.10;99.90;;;;;;20340399;29;20564;-68
2021/10/24 22:35:23;;;;;;;2.87;0.37;;;16.20;99.90;;;;;;20340310;29;20226;-68
2021/10/24 22:45:28;;;;;;;1.60;1.43;;;16.10;99.90;;;;;;20339674;29;20221;-67
2021/10/24 22:55:33;;;;;;;0.33;0.33;;;15.90;99.90;;;;;;20339677;29;20237;-68
2021/10/24 23:05:37;;;;;;;0.83;0.33;;;15.90;99.90;;;;;;20350115;29;20337;-68
2021/10/24 23:15:43;;;;;;;0.97;0.77;;;15.90;99.90;;;;;;20337341;29;20198;-67
2021/10/24 23:25:46;;;;;;;0.40;0.40;;;15.80;99.90;;;;;;20337510;29;20230;-67
2021/10/24 23:35:51;;;;;;;0.20;0.10;;;15.70;99.90;;;;;;20336262;29;20631;-68
2021/10/24 23:45:55;;;;;;;1.57;1.47;;;15.50;99.90;;;;;;20337415;29;20779;-67
2021/10/24 23:56:00;;;;;;;0.63;0.63;;;15.50;99.90;;;;;;20299119;29;20272;-66
